sensor_id;sensor_type;location;lat;lon;timestamp;pressure;altitude;pressure_sealevel;temperature
33267;BMP180;19638;49.080;11.896;2023-07-28T00:00:01;95701.00;;;17.10
33267;BMP180;19638;49.080;11.896;2023-07-28T00:04:07;95700.00;;;17.10
33267;BMP180;19638;49.080;11.896;2023-07-28T00:08:16;95696.00;;;17.10
33267;BMP180;19638;49.080;11.896;2023-07-28T00:12:21;95703.00;;;17.10
33267;BMP180;19638;49.080;11.896;2023-07-28T00:16:25;95707.00;;;17.10
33267;BMP180;19638;49.080;11.896;2023-07-28T00:20:29;95708.00;;;17.10
33267;BMP180;19638;49.080;11.896;2023-07-28T00:24:35;95708.00;;;17.10
33267;BMP180;19638;49.080;11.896;2023-07-28T00:28:40;95705.00;;;17.10
33267;BMP180;19638;49.080;11.896;2023-07-28T00:32:44;95696.00;;;17.10
33267;BMP180;19638;49.080;11.896;2023-07-28T00:36:47;95688.00;;;17.20
33267;BMP180;19638;49.080;11.896;2023-07-28T00:40:54;95689.00;;;17.30
33267;BMP180;19638;49.080;11.896;2023-07-28T00:44:58;95690.00;;;17.30
33267;BMP180;19638;49.080;11.896;2023-07-28T00:49:04;95686.00;;;17.30
33267;BMP180;19638;49.080;11.896;2023-07-28T00:53:07;95684.00;;;17.30
33267;BMP180;19638;49.080;11.896;2023-07-28T00:57:11;95678.00;;;17.30
33267;BMP180;19638;49.080;11.896;2023-07-28T01:01:16;95681.00;;;17.30
33267;BMP180;19638;49.080;11.896;2023-07-28T01:05:24;95664.00;;;17.30
33267;BMP180;19638;49.080;11.896;2023-07-28T01:09:34;95662.00;;;17.30
33267;BMP180;19638;49.080;11.896;2023-07-28T01:13:42;95663.00;;;17.30
33267;BMP180;19638;49.080;11.896;2023-07-28T01:17:47;95661.00;;;17.10
33267;BMP180;19638;49.080;11.896;2023-07-28T01:21:54;95659.00;;;17.10
33267;BMP180;19638;49.080;11.896;2023-07-28T01:26:08;95654.00;;;17.10
33267;BMP180;19638;49.080;11.896;2023-07-28T01:30:13;95649.00;;;17.10
33267;BMP180;19638;49.080;11.896;2023-07-28T01:34:18;95647.00;;;17.10
33267;BMP180;19638;49.080;11.896;2023-07-28T01:38:22;95646.00;;;17.10
33267;BMP180;19638;49.080;11.896;2023-07-28T01:42:25;95652.00;;;17.10
33267;BMP180;19638;49.080;11.896;2023-07-28T01:46:30;95651.00;;;17.10
33267;BMP180;19638;49.080;11.896;2023-07-28T01:50:36;95642.00;;;17.10
33267;BMP180;19638;49.080;11.896;2023-07-28T01:54:43;95660.00;;;17.10
33267;BMP180;19638;49.080;11.896;2023-07-28T01:58:46;95643.00;;;17.10
33267;BMP180;19638;49.080;11.896;2023-07-28T02:02:54;95648.00;;;17.20
33267;BMP180;19638;49.080;11.896;2023-07-28T02:07:01;95647.00;;;17.20
33267;BMP180;19638;49.080;11.896;2023-07-28T02:11:07;95650.00;;;17.20
33267;BMP180;19638;49.080;11.896;2023-07-28T02:15:11;95654.00;;;17.20
33267;BMP180;19638;49.080;11.896;2023-07-28T02:19:17;95646.00;;;17.30
33267;BMP180;19638;49.080;11.896;2023-07-28T02:23:20;95646.00;;;17.20
33267;BMP180;19638;49.080;11.896;2023-07-28T02:27:23;95641.00;;;17.20
33267;BMP180;19638;49.080;11.896;2023-07-28T02:31:26;95638.00;;;17.20
33267;BMP180;19638;49.080;11.896;2023-07-28T02:35:30;95646.00;;;17.30
33267;BMP180;19638;49.080;11.896;2023-07-28T02:39:36;95638.00;;;17.30
33267;BMP180;19638;49.080;11.896;2023-07-28T02:43:41;95642.00;;;17.30
33267;BMP180;19638;49.080;11.896;2023-07-28T02:47:47;95635.00;;;17.30
33267;BMP180;19638;49.080;11.896;2023-07-28T02:51:54;95632.00;;;17.30
33267;BMP180;19638;49.080;11.896;2023-07-28T02:55:59;95647.00;;;17.30
33267;BMP180;19638;49.080;11.896;2023-07-28T03:00:05;95642.00;;;17.30
33267;BMP180;19638;49.080;11.896;2023-07-28T03:04:12;95642.00;;;17.30
33267;BMP180;19638;49.080;11.896;2023-07-28T03:08:23;95639.00;;;17.20
33267;BMP180;19638;49.080;11.896;2023-07-28T03:12:26;95639.00;;;17.20
33267;BMP180;19638;49.080;11.896;2023-07-28T03:16:31;95642.00;;;17.20
33267;BMP180;19638;49.080;11.896;2023-07-28T03:20:35;95642.00;;;17.20
33267;BMP180;19638;49.080;11.896;2023-07-28T03:24:39;95641.00;;;17.10
33267;BMP180;19638;49.080;11.896;2023-07-28T03:28:43;95641.00;;;17.10
33267;BMP180;19638;49.080;11.896;2023-07-28T03:32:49;95646.00;;;17.10
33267;BMP180;19638;49.080;11.896;2023-07-28T03:36:52;95641.00;;;17.00
33267;BMP180;19638;49.080;11.896;2023-07-28T03:41:03;95634.00;;;17.00
33267;BMP180;19638;49.080;11.896;2023-07-28T03:45:08;95645.00;;;17.00
33267;BMP180;19638;49.080;11.896;2023-07-28T03:49:12;95631.00;;;17.00
33267;BMP180;19638;49.080;11.896;2023-07-28T03:53:15;95635.00;;;16.90
33267;BMP180;19638;49.080;11.896;2023-07-28T03:57:21;95638.00;;;16.80
33267;BMP180;19638;49.080;11.896;2023-07-28T04:01:26;95641.00;;;16.80
33267;BMP180;19638;49.080;11.896;2023-07-28T04:05:32;95648.00;;;16.80
33267;BMP180;19638;49.080;11.896;2023-07-28T04:09:36;95650.00;;;16.80
33267;BMP180;19638;49.080;11.896;2023-07-28T04:13:42;95658.00;;;16.70
33267;BMP180;19638;49.080;11.896;2023-07-28T04:17:45;95657.00;;;16.70
33267;BMP180;19638;49.080;11.896;2023-07-28T04:21:51;95658.00;;;16.70
33267;BMP180;19638;49.080;11.896;2023-07-28T04:25:54;95649.00;;;16.70
33267;BMP180;19638;49.080;11.896;2023-07-28T04:29:59;95662.00;;;16.70
33267;BMP180;19638;49.080;11.896;2023-07-28T04:34:05;95666.00;;;16.70
33267;BMP180;19638;49.080;11.896;2023-07-28T04:38:14;95667.00;;;16.70
33267;BMP180;19638;49.080;11.896;2023-07-28T04:42:19;95669.00;;;16.80
33267;BMP180;19638;49.080;11.896;2023-07-28T04:46:23;95665.00;;;16.90
33267;BMP180;19638;49.080;11.896;2023-07-28T04:50:27;95664.00;;;16.90
33267;BMP180;19638;49.080;11.896;2023-07-28T04:54:33;95663.00;;;16.90
33267;BMP180;19638;49.080;11.896;2023-07-28T04:58:36;95665.00;;;17.10
33267;BMP180;19638;49.080;11.896;2023-07-28T05:02:41;95666.00;;;17.20
33267;BMP180;19638;49.080;11.896;2023-07-28T05:06:46;95658.00;;;17.30
33267;BMP180;19638;49.080;11.896;2023-07-28T05:10:49;95663.00;;;17.50
33267;BMP180;19638;49.080;11.896;2023-07-28T05:14:53;95675.00;;;17.70
33267;BMP180;19638;49.080;11.896;2023-07-28T05:18:57;95675.00;;;17.90
33267;BMP180;19638;49.080;11.896;2023-07-28T05:23:00;95671.00;;;18.00
33267;BMP180;19638;49.080;11.896;2023-07-28T05:27:04;95673.00;;;18.10
33267;BMP180;19638;49.080;11.896;2023-07-28T05:31:10;95683.00;;;18.20
33267;BMP180;19638;49.080;11.896;2023-07-28T05:35:16;95683.00;;;18.30
33267;BMP180;19638;49.080;11.896;2023-07-28T05:39:23;95675.00;;;18.40
33267;BMP180;19638;49.080;11.896;2023-07-28T05:43:26;95677.00;;;18.50
33267;BMP180;19638;49.080;11.896;2023-07-28T05:47:32;95691.00;;;18.70
33267;BMP180;19638;49.080;11.896;2023-07-28T05:51:37;95685.00;;;18.80
33267;BMP180;19638;49.080;11.896;2023-07-28T05:55:40;95680.00;;;19.00
33267;BMP180;19638;49.080;11.896;2023-07-28T05:59:43;95690.00;;;19.20
33267;BMP180;19638;49.080;11.896;2023-07-28T06:03:46;95691.00;;;19.30
33267;BMP180;19638;49.080;11.896;2023-07-28T06:07:57;95684.00;;;19.40
33267;BMP180;19638;49.080;11.896;2023-07-28T06:12:00;95685.00;;;19.50
33267;BMP180;19638;49.080;11.896;2023-07-28T06:16:03;95695.00;;;19.50
33267;BMP180;19638;49.080;11.896;2023-07-28T06:20:11;95710.00;;;19.40
33267;BMP180;19638;49.080;11.896;2023-07-28T06:24:19;95702.00;;;19.40
33267;BMP180;19638;49.080;11.896;2023-07-28T06:28:25;95717.00;;;19.50
33267;BMP180;19638;49.080;11.896;2023-07-28T06:32:37;95723.00;;;19.50
33267;BMP180;19638;49.080;11.896;2023-07-28T06:36:41;95726.00;;;19.30
33267;BMP180;19638;49.080;11.896;2023-07-28T06:40:47;95720.00;;;19.30
33267;BMP180;19638;49.080;11.896;2023-07-28T06:44:52;95725.00;;;19.40
33267;BMP180;19638;49.080;11.896;2023-07-28T06:49:07;95728.00;;;19.60
33267;BMP180;19638;49.080;11.896;2023-07-28T06:53:10;95740.00;;;19.80
33267;BMP180;19638;49.080;11.896;2023-07-28T06:57:23;95726.00;;;20.00
33267;BMP180;19638;49.080;11.896;2023-07-28T07:01:26;95719.00;;;19.90
33267;BMP180;19638;49.080;11.896;2023-07-28T07:05:29;95732.00;;;19.80
33267;BMP180;19638;49.080;11.896;2023-07-28T07:09:34;95733.00;;;19.70
33267;BMP180;19638;49.080;11.896;2023-07-28T07:13:38;95730.00;;;19.90
33267;BMP180;19638;49.080;11.896;2023-07-28T07:17:41;95730.00;;;20.00
33267;BMP180;19638;49.080;11.896;2023-07-28T07:21:47;95744.00;;;20.20
33267;BMP180;19638;49.080;11.896;2023-07-28T07:25:52;95739.00;;;20.60
33267;BMP180;19638;49.080;11.896;2023-07-28T07:29:57;95737.00;;;21.10
33267;BMP180;19638;49.080;11.896;2023-07-28T07:34:03;95743.00;;;21.60
33267;BMP180;19638;49.080;11.896;2023-07-28T07:38:06;95740.00;;;22.10
33267;BMP180;19638;49.080;11.896;2023-07-28T07:42:10;95745.00;;;22.60
33267;BMP180;19638;49.080;11.896;2023-07-28T07:46:19;95751.00;;;22.90
33267;BMP180;19638;49.080;11.896;2023-07-28T07:50:22;95750.00;;;23.00
33267;BMP180;19638;49.080;11.896;2023-07-28T07:54:25;95748.00;;;22.90
33267;BMP180;19638;49.080;11.896;2023-07-28T07:58:29;95752.00;;;23.10
33267;BMP180;19638;49.080;11.896;2023-07-28T08:02:33;95754.00;;;23.10
33267;BMP180;19638;49.080;11.896;2023-07-28T08:06:39;95764.00;;;23.10
33267;BMP180;19638;49.080;11.896;2023-07-28T08:10:44;95775.00;;;23.30
33267;BMP180;19638;49.080;11.896;2023-07-28T08:14:49;95778.00;;;23.50
33267;BMP180;19638;49.080;11.896;2023-07-28T08:18:58;95771.00;;;23.30
33267;BMP180;19638;49.080;11.896;2023-07-28T08:23:04;95785.00;;;23.10
33267;BMP180;19638;49.080;11.896;2023-07-28T08:27:12;95779.00;;;22.90
33267;BMP180;19638;49.080;11.896;2023-07-28T08:31:15;95790.00;;;22.90
33267;BMP180;19638;49.080;11.896;2023-07-28T08:35:20;95795.00;;;22.90
33267;BMP180;19638;49.080;11.896;2023-07-28T08:39:24;95807.00;;;22.90
33267;BMP180;19638;49.080;11.896;2023-07-28T08:43:39;95808.00;;;22.90
33267;BMP180;19638;49.080;11.896;2023-07-28T08:47:47;95814.00;;;22.80
33267;BMP180;19638;49.080;11.896;2023-07-28T08:52:00;95826.00;;;22.80
33267;BMP180;19638;49.080;11.896;2023-07-28T08:56:03;95828.00;;;22.80
33267;BMP180;19638;49.080;11.896;2023-07-28T09:00:08;95838.00;;;22.70
33267;BMP180;19638;49.080;11.896;2023-07-28T09:04:16;95837.00;;;22.40
33267;BMP180;19638;49.080;11.896;2023-07-28T09:08:24;95832.00;;;21.60
33267;BMP180;19638;49.080;11.896;2023-07-28T09:12:27;95842.00;;;21.00
33267;BMP180;19638;49.080;11.896;2023-07-28T09:16:35;95847.00;;;20.70
33267;BMP180;19638;49.080;11.896;2023-07-28T09:20:41;95851.00;;;20.70
33267;BMP180;19638;49.080;11.896;2023-07-28T09:24:47;95854.00;;;20.60
33267;BMP180;19638;49.080;11.896;2023-07-28T09:28:50;95856.00;;;20.60
33267;BMP180;19638;49.080;11.896;2023-07-28T09:32:55;95850.00;;;20.60
33267;BMP180;19638;49.080;11.896;2023-07-28T09:37:00;95850.00;;;20.50
33267;BMP180;19638;49.080;11.896;2023-07-28T09:41:07;95858.00;;;20.40
33267;BMP180;19638;49.080;11.896;2023-07-28T09:45:18;95862.00;;;20.20
33267;BMP180;19638;49.080;11.896;2023-07-28T09:49:41;95860.00;;;20.10
33267;BMP180;19638;49.080;11.896;2023-07-28T09:53:56;95850.00;;;20.10
33267;BMP180;19638;49.080;11.896;2023-07-28T09:58:04;95847.00;;;20.10
33267;BMP180;19638;49.080;11.896;2023-07-28T10:02:12;95842.00;;;20.50
33267;BMP180;19638;49.080;11.896;2023-07-28T10:06:15;95845.00;;;21.10
33267;BMP180;19638;49.080;11.896;2023-07-28T10:10:19;95839.00;;;22.00
33267;BMP180;19638;49.080;11.896;2023-07-28T10:14:33;95853.00;;;22.60
33267;BMP180;19638;49.080;11.896;2023-07-28T10:18:40;95856.00;;;23.30
33267;BMP180;19638;49.080;11.896;2023-07-28T10:22:46;95854.00;;;23.60
33267;BMP180;19638;49.080;11.896;2023-07-28T10:26:51;95855.00;;;23.60
33267;BMP180;19638;49.080;11.896;2023-07-28T10:31:03;95853.00;;;23.40
33267;BMP180;19638;49.080;11.896;2023-07-28T10:35:24;95857.00;;;23.40
33267;BMP180;19638;49.080;11.896;2023-07-28T10:39:34;95857.00;;;23.30
33267;BMP180;19638;49.080;11.896;2023-07-28T10:43:44;95855.00;;;23.20
33267;BMP180;19638;49.080;11.896;2023-07-28T10:47:50;95862.00;;;23.20
33267;BMP180;19638;49.080;11.896;2023-07-28T10:51:54;95864.00;;;23.10
33267;BMP180;19638;49.080;11.896;2023-07-28T10:56:02;95866.00;;;23.00
33267;BMP180;19638;49.080;11.896;2023-07-28T11:00:07;95867.00;;;22.90
33267;BMP180;19638;49.080;11.896;2023-07-28T11:04:15;95865.00;;;23.00
33267;BMP180;19638;49.080;11.896;2023-07-28T11:08:22;95863.00;;;23.00
33267;BMP180;19638;49.080;11.896;2023-07-28T11:12:25;95863.00;;;23.10
33267;BMP180;19638;49.080;11.896;2023-07-28T11:16:29;95874.00;;;23.60
33267;BMP180;19638;49.080;11.896;2023-07-28T11:20:38;95869.00;;;24.40
33267;BMP180;19638;49.080;11.896;2023-07-28T11:24:41;95856.00;;;24.80
33267;BMP180;19638;49.080;11.896;2023-07-28T11:28:44;95852.00;;;25.00
33267;BMP180;19638;49.080;11.896;2023-07-28T11:32:49;95845.00;;;25.00
33267;BMP180;19638;49.080;11.896;2023-07-28T11:36:54;95847.00;;;25.10
33267;BMP180;19638;49.080;11.896;2023-07-28T11:41:01;95841.00;;;25.20
33267;BMP180;19638;49.080;11.896;2023-07-28T11:45:06;95842.00;;;25.20
33267;BMP180;19638;49.080;11.896;2023-07-28T11:49:12;95843.00;;;24.80
33267;BMP180;19638;49.080;11.896;2023-07-28T11:53:18;95862.00;;;23.80
33267;BMP180;19638;49.080;11.896;2023-07-28T11:57:22;95864.00;;;22.70
33267;BMP180;19638;49.080;11.896;2023-07-28T12:01:26;95863.00;;;21.90
33267;BMP180;19638;49.080;11.896;2023-07-28T12:05:30;95870.00;;;21.40
33267;BMP180;19638;49.080;11.896;2023-07-28T12:09:52;95858.00;;;22.30
33267;BMP180;19638;49.080;11.896;2023-07-28T12:13:58;95863.00;;;23.20
33267;BMP180;19638;49.080;11.896;2023-07-28T12:18:12;95856.00;;;24.40
33267;BMP180;19638;49.080;11.896;2023-07-28T12:22:18;95855.00;;;24.90
33267;BMP180;19638;49.080;11.896;2023-07-28T12:26:25;95865.00;;;25.20
33267;BMP180;19638;49.080;11.896;2023-07-28T12:30:28;95867.00;;;24.50
33267;BMP180;19638;49.080;11.896;2023-07-28T12:34:34;95865.00;;;24.10
33267;BMP180;19638;49.080;11.896;2023-07-28T12:38:54;95867.00;;;24.10
33267;BMP180;19638;49.080;11.896;2023-07-28T12:43:01;95865.00;;;24.50
33267;BMP180;19638;49.080;11.896;2023-07-28T12:47:06;95867.00;;;25.20
33267;BMP180;19638;49.080;11.896;2023-07-28T12:51:10;95865.00;;;25.70
33267;BMP180;19638;49.080;11.896;2023-07-28T12:55:13;95871.00;;;26.10
33267;BMP180;19638;49.080;11.896;2023-07-28T12:59:19;95869.00;;;26.30
33267;BMP180;19638;49.080;11.896;2023-07-28T13:03:28;95869.00;;;26.30
33267;BMP180;19638;49.080;11.896;2023-07-28T13:07:31;95875.00;;;26.40
33267;BMP180;19638;49.080;11.896;2023-07-28T13:11:37;95868.00;;;26.90
33267;BMP180;19638;49.080;11.896;2023-07-28T13:15:45;95880.00;;;27.20
33267;BMP180;19638;49.080;11.896;2023-07-28T13:19:48;95876.00;;;27.30
33267;BMP180;19638;49.080;11.896;2023-07-28T13:23:51;95879.00;;;27.60
33267;BMP180;19638;49.080;11.896;2023-07-28T13:27:56;95877.00;;;28.00
33267;BMP180;19638;49.080;11.896;2023-07-28T13:32:00;95884.00;;;28.70
33267;BMP180;19638;49.080;11.896;2023-07-28T13:36:10;95897.00;;;28.90
33267;BMP180;19638;49.080;11.896;2023-07-28T13:40:15;95894.00;;;28.60
33267;BMP180;19638;49.080;11.896;2023-07-28T13:44:19;95883.00;;;28.60
33267;BMP180;19638;49.080;11.896;2023-07-28T13:48:36;95879.00;;;28.70
33267;BMP180;19638;49.080;11.896;2023-07-28T13:52:44;95873.00;;;28.70
33267;BMP180;19638;49.080;11.896;2023-07-28T13:56:56;95879.00;;;28.60
33267;BMP180;19638;49.080;11.896;2023-07-28T14:01:07;95880.00;;;28.40
33267;BMP180;19638;49.080;11.896;2023-07-28T14:05:14;95878.00;;;28.10
33267;BMP180;19638;49.080;11.896;2023-07-28T14:09:17;95883.00;;;27.90
33267;BMP180;19638;49.080;11.896;2023-07-28T14:13:27;95883.00;;;27.80
33267;BMP180;19638;49.080;11.896;2023-07-28T14:17:30;95897.00;;;28.00
33267;BMP180;19638;49.080;11.896;2023-07-28T14:21:35;95896.00;;;28.10
33267;BMP180;19638;49.080;11.896;2023-07-28T14:25:43;95900.00;;;28.20
33267;BMP180;19638;49.080;11.896;2023-07-28T14:29:48;95900.00;;;28.10
33267;BMP180;19638;49.080;11.896;2023-07-28T14:33:53;95898.00;;;28.00
33267;BMP180;19638;49.080;11.896;2023-07-28T14:38:01;95888.00;;;28.00
33267;BMP180;19638;49.080;11.896;2023-07-28T14:42:05;95885.00;;;28.10
33267;BMP180;19638;49.080;11.896;2023-07-28T14:46:08;95890.00;;;28.40
33267;BMP180;19638;49.080;11.896;2023-07-28T14:50:12;95894.00;;;28.70
33267;BMP180;19638;49.080;11.896;2023-07-28T14:54:17;95884.00;;;29.00
33267;BMP180;19638;49.080;11.896;2023-07-28T14:58:22;95871.00;;;29.10
33267;BMP180;19638;49.080;11.896;2023-07-28T15:02:26;95873.00;;;29.10
33267;BMP180;19638;49.080;11.896;2023-07-28T15:06:32;95874.00;;;29.00
33267;BMP180;19638;49.080;11.896;2023-07-28T15:10:40;95873.00;;;28.80
33267;BMP180;19638;49.080;11.896;2023-07-28T15:14:43;95867.00;;;28.50
33267;BMP180;19638;49.080;11.896;2023-07-28T15:18:49;95872.00;;;27.90
33267;BMP180;19638;49.080;11.896;2023-07-28T15:22:58;95874.00;;;27.80
33267;BMP180;19638;49.080;11.896;2023-07-28T15:27:06;95876.00;;;27.70
33267;BMP180;19638;49.080;11.896;2023-07-28T15:31:10;95886.00;;;27.70
33267;BMP180;19638;49.080;11.896;2023-07-28T15:35:16;95886.00;;;27.40
33267;BMP180;19638;49.080;11.896;2023-07-28T15:39:19;95888.00;;;27.20
33267;BMP180;19638;49.080;11.896;2023-07-28T15:43:28;95894.00;;;27.00
33267;BMP180;19638;49.080;11.896;2023-07-28T15:47:35;95890.00;;;26.60
33267;BMP180;19638;49.080;11.896;2023-07-28T15:51:43;95895.00;;;26.40
33267;BMP180;19638;49.080;11.896;2023-07-28T15:55:55;95889.00;;;26.50
33267;BMP180;19638;49.080;11.896;2023-07-28T16:00:01;95897.00;;;26.50
33267;BMP180;19638;49.080;11.896;2023-07-28T16:04:05;95911.00;;;26.30
33267;BMP180;19638;49.080;11.896;2023-07-28T16:08:12;95914.00;;;26.10
33267;BMP180;19638;49.080;11.896;2023-07-28T16:12:15;95910.00;;;26.10
33267;BMP180;19638;49.080;11.896;2023-07-28T16:16:22;95905.00;;;26.10
33267;BMP180;19638;49.080;11.896;2023-07-28T16:20:34;95900.00;;;26.00
33267;BMP180;19638;49.080;11.896;2023-07-28T16:24:39;95897.00;;;26.00
33267;BMP180;19638;49.080;11.896;2023-07-28T16:28:45;95896.00;;;25.80
33267;BMP180;19638;49.080;11.896;2023-07-28T16:32:50;95907.00;;;25.50
33267;BMP180;19638;49.080;11.896;2023-07-28T16:36:53;95906.00;;;25.00
33267;BMP180;19638;49.080;11.896;2023-07-28T16:40:59;95913.00;;;23.90
33267;BMP180;19638;49.080;11.896;2023-07-28T16:45:08;95910.00;;;23.10
33267;BMP180;19638;49.080;11.896;2023-07-28T16:49:13;95912.00;;;22.80
33267;BMP180;19638;49.080;11.896;2023-07-28T16:53:16;95910.00;;;22.60
33267;BMP180;19638;49.080;11.896;2023-07-28T16:57:21;95914.00;;;22.60
33267;BMP180;19638;49.080;11.896;2023-07-28T17:01:28;95911.00;;;22.60
33267;BMP180;19638;49.080;11.896;2023-07-28T17:05:32;95920.00;;;22.60
33267;BMP180;19638;49.080;11.896;2023-07-28T17:09:35;95920.00;;;22.60
33267;BMP180;19638;49.080;11.896;2023-07-28T17:13:39;95911.00;;;22.60
33267;BMP180;19638;49.080;11.896;2023-07-28T17:17:42;95907.00;;;22.60
33267;BMP180;19638;49.080;11.896;2023-07-28T17:21:47;95925.00;;;22.60
33267;BMP180;19638;49.080;11.896;2023-07-28T17:25:51;95920.00;;;22.20
33267;BMP180;19638;49.080;11.896;2023-07-28T17:29:55;95919.00;;;22.00
33267;BMP180;19638;49.080;11.896;2023-07-28T17:34:00;95929.00;;;21.80
33267;BMP180;19638;49.080;11.896;2023-07-28T17:38:05;95917.00;;;21.80
33267;BMP180;19638;49.080;11.896;2023-07-28T17:42:14;95912.00;;;21.80
33267;BMP180;19638;49.080;11.896;2023-07-28T17:46:18;95903.00;;;21.90
33267;BMP180;19638;49.080;11.896;2023-07-28T17:50:22;95898.00;;;21.90
33267;BMP180;19638;49.080;11.896;2023-07-28T17:54:28;95899.00;;;21.90
33267;BMP180;19638;49.080;11.896;2023-07-28T17:58:34;95894.00;;;21.90
33267;BMP180;19638;49.080;11.896;2023-07-28T18:02:39;95900.00;;;21.80
33267;BMP180;19638;49.080;11.896;2023-07-28T18:06:42;95900.00;;;21.80
33267;BMP180;19638;49.080;11.896;2023-07-28T18:10:48;95902.00;;;21.70
33267;BMP180;19638;49.080;11.896;2023-07-28T18:14:51;95909.00;;;21.60
33267;BMP180;19638;49.080;11.896;2023-07-28T18:18:57;95910.00;;;21.50
33267;BMP180;19638;49.080;11.896;2023-07-28T18:23:00;95911.00;;;21.40
33267;BMP180;19638;49.080;11.896;2023-07-28T18:27:05;95907.00;;;21.30
33267;BMP180;19638;49.080;11.896;2023-07-28T18:31:16;95915.00;;;21.20
33267;BMP180;19638;49.080;11.896;2023-07-28T18:35:20;95917.00;;;21.20
33267;BMP180;19638;49.080;11.896;2023-07-28T18:39:28;95920.00;;;21.10
33267;BMP180;19638;49.080;11.896;2023-07-28T18:43:36;95914.00;;;21.10
33267;BMP180;19638;49.080;11.896;2023-07-28T18:47:39;95923.00;;;21.00
33267;BMP180;19638;49.080;11.896;2023-07-28T18:51:42;95935.00;;;21.00
33267;BMP180;19638;49.080;11.896;2023-07-28T18:55:48;95940.00;;;20.90
33267;BMP180;19638;49.080;11.896;2023-07-28T18:59:53;95933.00;;;20.80
33267;BMP180;19638;49.080;11.896;2023-07-28T19:03:56;95950.00;;;20.70
33267;BMP180;19638;49.080;11.896;2023-07-28T19:07:59;95967.00;;;20.70
33267;BMP180;19638;49.080;11.896;2023-07-28T19:12:03;95981.00;;;20.60
33267;BMP180;19638;49.080;11.896;2023-07-28T19:16:07;95988.00;;;20.50
33267;BMP180;19638;49.080;11.896;2023-07-28T19:20:12;95987.00;;;20.40
33267;BMP180;19638;49.080;11.896;2023-07-28T19:24:17;95977.00;;;20.40
33267;BMP180;19638;49.080;11.896;2023-07-28T19:28:20;95980.00;;;20.30
33267;BMP180;19638;49.080;11.896;2023-07-28T19:32:24;95981.00;;;20.30
33267;BMP180;19638;49.080;11.896;2023-07-28T19:36:29;95974.00;;;20.30
33267;BMP180;19638;49.080;11.896;2023-07-28T19:40:35;95967.00;;;20.30
33267;BMP180;19638;49.080;11.896;2023-07-28T19:44:41;95960.00;;;20.30
33267;BMP180;19638;49.080;11.896;2023-07-28T19:48:47;95962.00;;;20.30
33267;BMP180;19638;49.080;11.896;2023-07-28T19:52:53;95965.00;;;20.30
33267;BMP180;19638;49.080;11.896;2023-07-28T19:56:58;95965.00;;;20.30
33267;BMP180;19638;49.080;11.896;2023-07-28T20:01:04;95961.00;;;20.30
33267;BMP180;19638;49.080;11.896;2023-07-28T20:05:10;95957.00;;;20.20
33267;BMP180;19638;49.080;11.896;2023-07-28T20:09:16;95964.00;;;20.20
33267;BMP180;19638;49.080;11.896;2023-07-28T20:13:22;95966.00;;;20.10
33267;BMP180;19638;49.080;11.896;2023-07-28T20:17:27;95975.00;;;20.10
33267;BMP180;19638;49.080;11.896;2023-07-28T20:21:31;95976.00;;;20.10
33267;BMP180;19638;49.080;11.896;2023-07-28T20:25:39;95980.00;;;20.00
33267;BMP180;19638;49.080;11.896;2023-07-28T20:29:42;95978.00;;;20.00
33267;BMP180;19638;49.080;11.896;2023-07-28T20:33:45;95977.00;;;20.00
33267;BMP180;19638;49.080;11.896;2023-07-28T20:37:51;95966.00;;;20.00
33267;BMP180;19638;49.080;11.896;2023-07-28T20:41:55;95979.00;;;20.00
33267;BMP180;19638;49.080;11.896;2023-07-28T20:45:59;95980.00;;;19.90
33267;BMP180;19638;49.080;11.896;2023-07-28T20:50:02;95979.00;;;20.00
33267;BMP180;19638;49.080;11.896;2023-07-28T20:54:09;95984.00;;;20.00
33267;BMP180;19638;49.080;11.896;2023-07-28T20:58:12;95993.00;;;20.00
33267;BMP180;19638;49.080;11.896;2023-07-28T21:02:17;95997.00;;;20.00
33267;BMP180;19638;49.080;11.896;2023-07-28T21:06:23;95984.00;;;19.90
33267;BMP180;19638;49.080;11.896;2023-07-28T21:10:30;95987.00;;;19.90
33267;BMP180;19638;49.080;11.896;2023-07-28T21:14:34;95988.00;;;19.90
33267;BMP180;19638;49.080;11.896;2023-07-28T21:18:39;95995.00;;;19.90
33267;BMP180;19638;49.080;11.896;2023-07-28T21:22:50;95994.00;;;19.90
33267;BMP180;19638;49.080;11.896;2023-07-28T21:26:56;95991.00;;;19.90
33267;BMP180;19638;49.080;11.896;2023-07-28T21:31:00;95988.00;;;19.90
33267;BMP180;19638;49.080;11.896;2023-07-28T21:35:03;95989.00;;;19.90
33267;BMP180;19638;49.080;11.896;2023-07-28T21:39:07;95986.00;;;19.90
33267;BMP180;19638;49.080;11.896;2023-07-28T21:43:14;95992.00;;;19.90
33267;BMP180;19638;49.080;11.896;2023-07-28T21:47:17;95996.00;;;19.90
33267;BMP180;19638;49.080;11.896;2023-07-28T21:51:20;96003.00;;;19.90
33267;BMP180;19638;49.080;11.896;2023-07-28T21:55:25;96003.00;;;19.90
33267;BMP180;19638;49.080;11.896;2023-07-28T21:59:30;96001.00;;;20.00
33267;BMP180;19638;49.080;11.896;2023-07-28T22:03:33;96005.00;;;20.00
33267;BMP180;19638;49.080;11.896;2023-07-28T22:07:37;96010.00;;;19.90
33267;BMP180;19638;49.080;11.896;2023-07-28T22:11:43;96013.00;;;19.60
33267;BMP180;19638;49.080;11.896;2023-07-28T22:15:47;96021.00;;;19.30
33267;BMP180;19638;49.080;11.896;2023-07-28T22:19:50;96018.00;;;19.10
33267;BMP180;19638;49.080;11.896;2023-07-28T22:23:54;96018.00;;;19.10
33267;BMP180;19638;49.080;11.896;2023-07-28T22:27:57;96039.00;;;19.00
33267;BMP180;19638;49.080;11.896;2023-07-28T22:32:05;96031.00;;;19.00
33267;BMP180;19638;49.080;11.896;2023-07-28T22:36:10;96041.00;;;18.90
33267;BMP180;19638;49.080;11.896;2023-07-28T22:40:21;96035.00;;;18.70
33267;BMP180;19638;49.080;11.896;2023-07-28T22:44:26;96033.00;;;18.60
33267;BMP180;19638;49.080;11.896;2023-07-28T22:48:31;96017.00;;;18.60
33267;BMP180;19638;49.080;11.896;2023-07-28T22:52:41;96026.00;;;18.50
33267;BMP180;19638;49.080;11.896;2023-07-28T22:56:46;96024.00;;;18.50
33267;BMP180;19638;49.080;11.896;2023-07-28T23:00:53;96020.00;;;18.50
33267;BMP180;19638;49.080;11.896;2023-07-28T23:04:58;96025.00;;;18.40
33267;BMP180;19638;49.080;11.896;2023-07-28T23:09:12;96024.00;;;18.30
33267;BMP180;19638;49.080;11.896;2023-07-28T23:13:16;96026.00;;;18.30